Time,TemperatureF,DewpointF,PressureIn,WindDirection,WindDirectionDegrees,WindSpeedMPH,WindSpeedGustMPH,Humidity,HourlyPrecipIn,Conditions,Clouds,dailyrainin,SoftwareType,DateUTC
2013-05-28 00:02:00,48.0,36.0,29.92,WNW,296,9.0,-999.0,62,-99.99,,,-99.99,,2013-05-28 06:02:00,
2013-05-28 00:11:00,48.0,36.0,29.92,WNW,296,9.0,-999.0,62,-99.99,,,-99.99,,2013-05-28 06:11:00,
2013-05-28 00:21:00,47.0,35.0,29.93,West,274,3.0,-999.0,62,-99.99,,,-99.99,,2013-05-28 06:21:00,
2013-05-28 00:31:00,47.0,35.0,29.93,WSW,257,1.0,-999.0,63,-99.99,,,-99.99,,2013-05-28 06:31:00,
2013-05-28 00:41:00,47.0,35.0,29.93,WSW,257,1.0,-999.0,63,-99.99,,,-99.99,,2013-05-28 06:41:00,
2013-05-28 00:52:00,47.0,35.0,29.93,WSW,257,0.0,-999.0,64,-99.99,,,-99.99,,2013-05-28 06:52:00,
2013-05-28 01:01:00,46.0,35.0,29.92,WSW,257,0.0,-999.0,64,-99.99,,,-99.99,,2013-05-28 07:01:00,
2013-05-28 01:11:00,46.0,35.0,29.92,WSW,257,0.0,-999.0,64,-99.99,,,-99.99,,2013-05-28 07:11:00,
2013-05-28 01:21:00,46.0,35.0,29.92,WSW,257,0.0,-999.0,65,-99.99,,,-99.99,,2013-05-28 07:21:00,
2013-05-28 01:31:00,46.0,36.0,29.92,South,182,2.0,-999.0,69,-99.99,,,-99.99,,2013-05-28 07:31:00,
2013-05-28 01:41:00,46.0,36.0,29.92,South,182,2.0,-999.0,69,-99.99,,,-99.99,,2013-05-28 07:41:00,
2013-05-28 01:52:00,45.0,36.0,29.91,SSE,168,0.0,-999.0,71,-99.99,,,-99.99,,2013-05-28 07:52:00,
2013-05-28 02:01:00,45.0,38.0,29.91,SSW,194,3.0,-999.0,76,-99.99,,,-99.99,,2013-05-28 08:01:00,
2013-05-28 02:11:00,45.0,38.0,29.91,SSW,194,3.0,-999.0,76,-99.99,,,-99.99,,2013-05-28 08:11:00,
2013-05-28 02:21:00,44.0,39.0,29.91,SSW,213,3.0,-999.0,81,-99.99,,,-99.99,,2013-05-28 08:21:00,
2013-05-28 02:32:00,43.0,39.0,29.91,SSW,200,4.0,-999.0,86,-99.99,,,-99.99,,2013-05-28 08:32:00,
2013-05-28 02:41:00,43.0,39.0,29.91,SSW,200,4.0,-999.0,86,-99.99,,,-99.99,,2013-05-28 08:41:00,
2013-05-28 02:52:00,42.0,39.0,29.91,SW,219,0.0,-999.0,88,-99.99,,,-99.99,,2013-05-28 08:52:00,
2013-05-28 03:01:00,42.0,39.0,29.90,SW,219,0.0,-999.0,89,-99.99,,,-99.99,,2013-05-28 09:01:00,
2013-05-28 03:11:00,42.0,39.0,29.90,SW,219,0.0,-999.0,89,-99.99,,,-99.99,,2013-05-28 09:11:00,
2013-05-28 03:21:00,42.0,39.0,29.89,SW,219,0.0,-999.0,89,-99.99,,,-99.99,,2013-05-28 09:21:00,
2013-05-28 03:33:00,42.0,39.0,29.89,SW,219,0.0,-999.0,89,-99.99,,,-99.99,,2013-05-28 09:33:00,
2013-05-28 03:42:00,42.0,39.0,29.89,SW,219,0.0,-999.0,89,-99.99,,,-99.99,,2013-05-28 09:42:00,
2013-05-28 03:53:00,42.0,39.0,29.88,SW,219,0.0,-999.0,89,-99.99,,,-99.99,,2013-05-28 09:53:00,
2013-05-28 04:02:00,41.0,38.0,29.88,SW,219,0.0,-999.0,90,-99.99,,,-99.99,,2013-05-28 10:02:00,
2013-05-28 04:12:00,41.0,38.0,29.88,SW,219,0.0,-999.0,90,-99.99,,,-99.99,,2013-05-28 10:12:00,
2013-05-28 04:22:00,41.0,38.0,29.87,SW,219,0.0,-999.0,89,-99.99,,,-99.99,,2013-05-28 10:22:00,
2013-05-28 04:32:00,42.0,40.0,29.86,SW,219,1.0,-999.0,91,-99.99,,,-99.99,,2013-05-28 10:32:00,
2013-05-28 04:42:00,42.0,40.0,29.86,SW,219,1.0,-999.0,91,-99.99,,,-99.99,,2013-05-28 10:42:00,
2013-05-28 04:53:00,41.0,38.0,29.86,SW,219,0.0,-999.0,90,-99.99,,,-99.99,,2013-05-28 10:53:00,
2013-05-28 05:02:00,40.0,38.0,29.86,SW,219,0.0,-999.0,91,-99.99,,,-99.99,,2013-05-28 11:02:00,
2013-05-28 05:11:00,40.0,38.0,29.86,SW,219,0.0,-999.0,91,-99.99,,,-99.99,,2013-05-28 11:11:00,
2013-05-28 05:22:00,41.0,39.0,29.85,SSW,193,0.0,-999.0,92,-99.99,,,-99.99,,2013-05-28 11:22:00,
2013-05-28 05:31:00,41.0,39.0,29.85,ESE,109,0.0,-999.0,92,-99.99,,,-99.99,,2013-05-28 11:31:00,
2013-05-28 05:41:00,41.0,39.0,29.85,ESE,109,0.0,-999.0,92,-99.99,,,-99.99,,2013-05-28 11:41:00,
2013-05-28 05:52:00,41.0,39.0,29.85,ESE,109,0.0,-999.0,92,-99.99,,,-99.99,,2013-05-28 11:52:00,
2013-05-28 06:01:00,41.0,39.0,29.85,ESE,120,1.0,-999.0,92,-99.99,,,-99.99,,2013-05-28 12:01:00,
2013-05-28 06:11:00,41.0,39.0,29.85,ESE,120,1.0,-999.0,92,-99.99,,,-99.99,,2013-05-28 12:11:00,
2013-05-28 06:21:00,41.0,39.0,29.85,East,91,0.0,-999.0,92,-99.99,,,-99.99,,2013-05-28 12:21:00,
2013-05-28 06:31:00,41.0,39.0,29.84,East,91,0.0,-999.0,93,-99.99,,,-99.99,,2013-05-28 12:31:00,
2013-05-28 06:42:00,41.0,39.0,29.84,East,91,0.0,-999.0,93,-99.99,,,-99.99,,2013-05-28 12:42:00,
2013-05-28 06:52:00,40.0,38.0,29.84,East,97,0.0,-999.0,93,-99.99,,,-99.99,,2013-05-28 12:52:00,
2013-05-28 07:01:00,41.0,39.0,29.84,WNW,289,0.0,-999.0,94,-99.99,,,-99.99,,2013-05-28 13:01:00,
2013-05-28 07:11:00,41.0,39.0,29.84,WNW,289,0.0,-999.0,94,-99.99,,,-99.99,,2013-05-28 13:11:00,
2013-05-28 07:21:00,42.0,40.0,29.84,WNW,289,0.0,-999.0,94,-99.99,,,-99.99,,2013-05-28 13:21:00,
2013-05-28 07:32:00,43.0,41.0,29.83,WNW,289,0.0,-999.0,92,-99.99,,,-99.99,,2013-05-28 13:32:00,
2013-05-28 07:42:00,43.0,41.0,29.83,WNW,289,0.0,-999.0,92,-99.99,,,-99.99,,2013-05-28 13:42:00,
2013-05-28 07:52:00,43.0,41.0,29.83,WNW,289,0.0,-999.0,91,-99.99,,,-99.99,,2013-05-28 13:52:00,
2013-05-28 08:01:00,44.0,41.0,29.83,WNW,289,0.0,-999.0,89,-99.99,,,-99.99,,2013-05-28 14:01:00,
2013-05-28 08:11:00,44.0,41.0,29.83,WNW,289,0.0,-999.0,89,-99.99,,,-99.99,,2013-05-28 14:11:00,
2013-05-28 08:21:00,44.0,41.0,29.82,East,80,0.0,-999.0,90,-99.99,,,-99.99,,2013-05-28 14:21:00,
2013-05-28 08:32:00,45.0,41.0,29.82,East,96,0.0,-999.0,87,-99.99,,,-99.99,,2013-05-28 14:32:00,
2013-05-28 08:41:00,45.0,41.0,29.82,East,96,0.0,-999.0,87,-99.99,,,-99.99,,2013-05-28 14:41:00,
2013-05-28 08:52:00,46.0,42.0,29.81,East,82,0.0,-999.0,86,-99.99,,,-99.99,,2013-05-28 14:52:00,
2013-05-28 09:01:00,46.0,42.0,29.81,East,82,0.0,-999.0,86,-99.99,,,-99.99,,2013-05-28 15:01:00,
2013-05-28 09:11:00,46.0,42.0,29.81,East,82,0.0,-999.0,86,-99.99,,,-99.99,,2013-05-28 15:11:00,
2013-05-28 09:21:00,47.0,41.0,29.80,NE,40,0.0,-999.0,81,-99.99,,,-99.99,,2013-05-28 15:21:00,
2013-05-28 09:32:00,48.0,42.0,29.80,NNE,30,0.0,-999.0,81,-99.99,,,-99.99,,2013-05-28 15:32:00,
2013-05-28 09:43:00,48.0,42.0,29.80,NNE,30,0.0,-999.0,81,-99.99,,,-99.99,,2013-05-28 15:43:00,
2013-05-28 09:53:00,49.0,41.0,29.80,NNE,30,0.0,-999.0,74,-99.99,,,-99.99,,2013-05-28 15:53:00,
2013-05-28 10:02:00,51.0,43.0,29.80,SW,230,1.0,-999.0,74,-99.99,,,-99.99,,2013-05-28 16:02:00,
2013-05-28 10:12:00,51.0,43.0,29.80,SW,230,1.0,-999.0,74,-99.99,,,-99.99,,2013-05-28 16:12:00,
2013-05-28 10:22:00,52.0,41.0,29.80,SSE,160,2.0,-999.0,67,-99.99,,,-99.99,,2013-05-28 16:22:00,
2013-05-28 10:32:00,53.0,41.0,29.79,SSE,164,1.0,-999.0,64,-99.99,,,-99.99,,2013-05-28 16:32:00,
2013-05-28 10:42:00,53.0,41.0,29.79,SSE,164,1.0,-999.0,64,-99.99,,,-99.99,,2013-05-28 16:42:00,
2013-05-28 10:52:00,54.0,41.0,29.78,SW,229,2.0,-999.0,61,-99.99,,,-99.99,,2013-05-28 16:52:00,
2013-05-28 11:02:00,55.0,40.0,29.78,ESE,116,2.0,-999.0,57,-99.99,,,-99.99,,2013-05-28 17:02:00,
2013-05-28 11:11:00,55.0,40.0,29.78,ESE,116,2.0,-999.0,57,-99.99,,,-99.99,,2013-05-28 17:11:00,
2013-05-28 11:22:00,55.0,40.0,29.78,ESE,116,2.0,-999.0,57,-99.99,,,-99.99,,2013-05-28 17:22:00,
2013-05-28 11:31:00,55.0,39.0,29.78,South,189,4.0,-999.0,54,-99.99,,,-99.99,,2013-05-28 17:31:00,
2013-05-28 11:41:00,54.0,38.0,29.78,SW,218,3.0,-999.0,54,-99.99,,,-99.99,,2013-05-28 17:41:00,
2013-05-28 11:52:00,54.0,38.0,29.78,SW,218,3.0,-999.0,54,-99.99,,,-99.99,,2013-05-28 17:52:00,
2013-05-28 12:01:00,53.0,39.0,29.78,WSW,246,4.0,-999.0,58,-99.99,,,-99.99,,2013-05-28 18:01:00,
2013-05-28 12:11:00,53.0,39.0,29.78,WSW,246,4.0,-999.0,58,-99.99,,,-99.99,,2013-05-28 18:11:00,
2013-05-28 12:21:00,50.0,38.0,29.79,WSW,252,6.0,-999.0,64,-99.99,,,-99.99,,2013-05-28 18:21:00,
2013-05-28 12:32:00,51.0,39.0,29.79,SW,227,0.0,-999.0,63,-99.99,,,-99.99,,2013-05-28 18:32:00,
2013-05-28 12:42:00,49.0,40.0,29.80,SSE,150,6.0,-999.0,71,-99.99,,,-99.99,,2013-05-28 18:42:00,
2013-05-28 12:52:00,49.0,40.0,29.80,SSE,150,6.0,-999.0,71,-99.99,,,-99.99,,2013-05-28 18:52:00,
2013-05-28 13:01:00,50.0,40.0,29.80,South,173,7.0,-999.0,69,-99.99,,,-99.99,,2013-05-28 19:01:00,
2013-05-28 13:11:00,50.0,40.0,29.80,South,173,7.0,-999.0,69,-99.99,,,-99.99,,2013-05-28 19:11:00,
2013-05-28 13:21:00,51.0,40.0,29.79,SSW,194,2.0,-999.0,66,-99.99,,,-99.99,,2013-05-28 19:21:00,
2013-05-28 13:31:00,52.0,39.0,29.79,South,189,5.0,-999.0,62,-99.99,,,-99.99,,2013-05-28 19:31:00,
2013-05-28 13:41:00,52.0,39.0,29.79,South,189,5.0,-999.0,62,-99.99,,,-99.99,,2013-05-28 19:41:00,
2013-05-28 13:52:00,52.0,39.0,29.79,WSW,243,3.0,-999.0,62,-99.99,,,-99.99,,2013-05-28 19:52:00,
2013-05-28 14:01:00,52.0,39.0,29.79,WSW,243,3.0,-999.0,62,-99.99,,,-99.99,,2013-05-28 20:01:00,
2013-05-28 14:11:00,52.0,39.0,29.79,WSW,243,3.0,-999.0,62,-99.99,,,-99.99,,2013-05-28 20:11:00,
2013-05-28 14:22:00,52.0,39.0,29.79,WSW,243,3.0,-999.0,62,-99.99,,,-99.99,,2013-05-28 20:22:00,